createdAt,value
2022-09-11T00:01:09.583Z,0.40
2022-09-11T00:04:11.365Z,0.50
2022-09-11T00:07:13.128Z,0.60
2022-09-11T00:10:15.290Z,0.50
2022-09-11T00:13:21.674Z,0.30
2022-09-11T00:16:34.080Z,0.52
2022-09-11T00:19:36.686Z,0.40
2022-09-11T00:22:39.834Z,0.40
2022-09-11T00:25:41.891Z,0.40
2022-09-11T00:28:50.980Z,0.60
2022-09-11T00:31:52.924Z,0.60
2022-09-11T00:34:54.792Z,0.47
2022-09-11T00:37:57.413Z,0.50
2022-09-11T00:41:01.148Z,0.60
2022-09-11T00:44:07.567Z,0.45
2022-09-11T00:47:09.958Z,0.60
2022-09-11T00:50:19.542Z,0.55
2022-09-11T00:53:30.487Z,0.40
2022-09-11T00:56:38.058Z,0.60
2022-09-11T00:59:42.160Z,0.60
2022-09-11T01:02:47.913Z,0.60
2022-09-11T01:05:56.368Z,0.80
2022-09-11T01:09:00.595Z,0.77
2022-09-11T01:12:12.160Z,0.63
2022-09-11T01:15:50.154Z,0.60
2022-09-11T01:19:05.903Z,0.77
2022-09-11T01:22:16.868Z,0.63
2022-09-11T01:25:23.368Z,0.80
2022-09-11T01:32:07.018Z,0.70
2022-09-11T01:35:24.962Z,0.75
2022-09-11T01:38:59.596Z,0.60
2022-09-11T01:42:07.242Z,0.55
2022-09-11T01:45:10.791Z,0.70
2022-09-11T01:48:18.706Z,0.45
2022-09-11T01:51:24.301Z,0.93
2022-09-11T01:54:43.231Z,0.55
2022-09-11T01:57:58.066Z,1.05
2022-09-11T02:01:06.236Z,0.93
2022-09-11T02:04:22.503Z,1.02
2022-09-11T02:07:31.911Z,0.60
2022-09-11T02:10:40.972Z,1.02
2022-09-11T02:14:16.645Z,0.50
2022-09-11T02:17:31.763Z,0.57
2022-09-11T02:20:45.699Z,0.82
2022-09-11T02:23:50.939Z,0.55
2022-09-11T02:26:55.991Z,0.70
2022-09-11T02:30:01.152Z,0.70
2022-09-11T02:33:47.400Z,0.50
2022-09-11T02:37:13.700Z,0.30
2022-09-11T02:40:46.953Z,0.50
2022-09-11T02:44:21.081Z,0.60
2022-09-11T02:47:35.450Z,0.63
2022-09-11T02:50:49.756Z,0.52
2022-09-11T02:54:21.148Z,0.50
2022-09-11T02:57:39.619Z,0.55
2022-09-11T03:00:41.871Z,0.47
2022-09-11T03:03:46.929Z,0.70
2022-09-11T03:06:50.950Z,0.85
2022-09-11T03:09:57.220Z,0.63
2022-09-11T03:13:00.424Z,0.50
2022-09-11T03:16:06.611Z,0.87
2022-09-11T03:19:09.040Z,0.60
2022-09-11T03:22:14.805Z,0.70
2022-09-11T03:25:17.964Z,0.65
2022-09-11T03:28:23.725Z,0.88
2022-09-11T03:31:26.563Z,0.60
2022-09-11T03:34:30.038Z,0.80
2022-09-11T03:37:32.407Z,0.50
2022-09-11T03:40:41.801Z,0.70
2022-09-11T03:43:43.854Z,0.60
2022-09-11T03:46:54.230Z,0.60
2022-09-11T03:49:57.022Z,0.90
2022-09-11T03:52:59.153Z,1.10
2022-09-11T03:56:06.053Z,1.00
2022-09-11T03:59:18.336Z,0.70
2022-09-11T04:02:20.765Z,0.50
2022-09-11T04:05:32.401Z,0.60
2022-09-11T04:08:41.635Z,0.73
2022-09-11T04:11:49.843Z,0.40
2022-09-11T04:15:02.950Z,0.77
2022-09-11T04:18:07.698Z,0.55
2022-09-11T04:21:16.378Z,0.60
2022-09-11T04:24:24.765Z,0.57
2022-09-11T04:27:27.636Z,0.68
2022-09-11T04:30:31.038Z,0.70
2022-09-11T04:33:35.409Z,0.63
2022-09-11T04:36:38.711Z,0.90
2022-09-11T04:42:47.374Z,0.50
2022-09-11T04:45:50.380Z,0.82
2022-09-11T04:48:56.502Z,0.82
2022-09-11T04:52:06.090Z,0.68
2022-09-11T04:55:10.176Z,0.80
2022-09-11T04:58:14.833Z,1.00
2022-09-11T05:01:17.396Z,0.80
2022-09-11T05:04:27.822Z,0.57
2022-09-11T05:07:35.463Z,0.75
2022-09-11T05:10:48.823Z,1.00
2022-09-11T05:13:52.371Z,0.80
2022-09-11T05:16:58.701Z,0.70
2022-09-11T05:20:12.658Z,1.15
2022-09-11T05:23:19.010Z,1.13
2022-09-11T05:26:31.399Z,1.00
2022-09-11T05:29:35.840Z,1.02
2022-09-11T05:32:44.624Z,1.05
2022-09-11T05:35:52.806Z,1.48
2022-09-11T05:39:02.808Z,2.00
2022-09-11T05:42:05.949Z,1.48
2022-09-11T05:45:26.000Z,0.90
2022-09-11T05:48:30.046Z,0.90
2022-09-11T05:51:37.730Z,1.00
2022-09-11T05:54:47.280Z,0.90
2022-09-11T05:57:53.198Z,1.10
2022-09-11T06:01:12.697Z,0.63
2022-09-11T06:04:21.674Z,0.80
2022-09-11T06:07:27.792Z,0.80
2022-09-11T06:10:32.894Z,0.80
2022-09-11T06:13:37.865Z,1.13
2022-09-11T06:16:44.181Z,1.02
2022-09-11T06:19:50.636Z,0.75
2022-09-11T06:22:52.945Z,0.90
2022-09-11T06:26:03.315Z,0.90
2022-09-11T06:29:11.113Z,0.80
2022-09-11T06:32:12.980Z,0.82
2022-09-11T06:35:18.940Z,0.77
2022-09-11T06:38:21.581Z,0.95
2022-09-11T06:41:25.691Z,0.82
2022-09-11T06:44:34.670Z,1.08
2022-09-11T06:47:40.677Z,0.70
2022-09-11T06:50:46.294Z,0.90
2022-09-11T06:53:49.001Z,1.00
2022-09-11T06:56:54.080Z,0.70
2022-09-11T06:59:58.160Z,0.70
2022-09-11T07:03:04.257Z,1.00
2022-09-11T07:06:06.591Z,0.75
2022-09-11T07:09:12.037Z,0.60
2022-09-11T07:12:24.420Z,0.93
2022-09-11T07:15:27.090Z,1.00
2022-09-11T07:18:36.507Z,0.80
2022-09-11T07:21:42.875Z,0.90
2022-09-11T07:24:47.425Z,0.88
2022-09-11T07:27:52.315Z,0.73
2022-09-11T07:31:04.448Z,0.88
2022-09-11T07:34:07.115Z,0.90
2022-09-11T07:37:10.318Z,0.93
2022-09-11T07:40:14.405Z,1.02
2022-09-11T07:43:16.755Z,1.10
2022-09-11T07:46:19.863Z,0.98
2022-09-11T07:49:24.446Z,0.90
2022-09-11T07:52:27.706Z,0.70
2022-09-11T07:55:35.656Z,0.63
2022-09-11T07:58:40.807Z,0.70
2022-09-11T08:01:44.695Z,0.60
2022-09-11T08:04:47.554Z,0.70
2022-09-11T08:07:51.971Z,0.98
2022-09-11T08:10:58.153Z,0.82
2022-09-11T08:14:01.630Z,0.90
2022-09-11T08:17:03.771Z,0.88
2022-09-11T08:20:07.884Z,0.80
2022-09-11T08:23:13.694Z,0.85
2022-09-11T08:26:24.005Z,0.70
2022-09-11T08:29:28.678Z,0.98
2022-09-11T08:32:31.832Z,0.77
2022-09-11T08:35:35.871Z,1.05
2022-09-11T08:38:40.706Z,1.00
2022-09-11T08:41:43.595Z,1.02
2022-09-11T08:44:57.029Z,0.73
2022-09-11T08:48:07.211Z,0.93
2022-09-11T08:51:17.624Z,1.10
2022-09-11T08:54:33.888Z,1.10
2022-09-11T08:57:57.659Z,1.00
2022-09-11T09:01:10.957Z,1.10
2022-09-11T09:04:23.945Z,0.98
2022-09-11T09:07:26.784Z,0.93
2022-09-11T09:10:34.607Z,0.95
2022-09-11T09:14:00.746Z,1.05
2022-09-11T09:17:10.376Z,1.17
2022-09-11T09:23:36.885Z,0.90
2022-09-11T09:26:42.813Z,1.08
2022-09-11T09:29:48.127Z,1.30
2022-09-11T09:33:13.214Z,1.55
2022-09-11T09:36:25.502Z,1.80
2022-09-11T09:39:29.829Z,1.30
2022-09-11T09:42:51.489Z,1.50
2022-09-11T09:46:27.169Z,1.58
2022-09-11T09:49:34.629Z,1.55
2022-09-11T09:52:37.511Z,1.05
2022-09-11T09:55:40.704Z,1.17
2022-09-11T09:59:12.239Z,1.05
2022-09-11T10:03:02.573Z,1.20
2022-09-11T10:06:05.648Z,1.27
2022-09-11T10:09:26.246Z,1.20
2022-09-11T10:12:34.001Z,1.27
2022-09-11T10:15:39.534Z,1.08
2022-09-11T10:18:44.285Z,1.42
2022-09-11T10:21:46.561Z,1.27
2022-09-11T10:25:12.787Z,1.75
2022-09-11T10:28:17.824Z,1.25
2022-09-11T10:31:22.558Z,1.38
2022-09-11T10:34:29.408Z,1.05
2022-09-11T10:37:31.755Z,1.27
2022-09-11T10:40:36.677Z,1.20
2022-09-11T10:43:42.051Z,1.17
2022-09-11T10:46:46.386Z,1.40
2022-09-11T10:49:49.365Z,1.02
2022-09-11T10:53:10.611Z,1.17
2022-09-11T10:56:13.855Z,1.33
2022-09-11T10:59:50.190Z,1.02
2022-09-11T11:02:56.817Z,1.27
2022-09-11T11:06:07.203Z,1.10
2022-09-11T11:09:33.575Z,0.90
2022-09-11T11:13:13.789Z,1.00
2022-09-11T11:16:35.229Z,1.17
2022-09-11T11:19:58.850Z,0.90
2022-09-11T11:23:30.657Z,0.88
2022-09-11T11:27:08.184Z,1.27
2022-09-11T11:30:15.584Z,1.27
2022-09-11T11:33:42.887Z,0.90
2022-09-11T11:36:47.036Z,1.33
2022-09-11T11:40:02.761Z,0.80
2022-09-11T11:43:08.793Z,0.70
2022-09-11T11:46:16.077Z,1.10
2022-09-11T11:49:50.594Z,0.70
2022-09-11T11:53:27.045Z,0.98
2022-09-11T11:56:41.017Z,0.80
2022-09-11T12:00:17.300Z,0.68
2022-09-11T12:03:51.183Z,0.80
2022-09-11T12:06:53.263Z,0.70
2022-09-11T12:09:58.201Z,0.95
2022-09-11T12:13:03.137Z,0.85
2022-09-11T12:16:11.842Z,0.80
2022-09-11T12:19:25.548Z,1.15
2022-09-11T12:22:38.571Z,1.38
2022-09-11T12:25:50.295Z,0.80
2022-09-11T12:29:12.215Z,0.60
2022-09-11T12:32:19.706Z,0.75
2022-09-11T12:35:28.650Z,0.60
2022-09-11T12:38:41.456Z,0.80
2022-09-11T12:41:46.322Z,0.45
2022-09-11T12:44:48.853Z,0.63
2022-09-11T12:47:51.336Z,0.50
2022-09-11T12:50:55.268Z,0.60
2022-09-11T12:54:03.774Z,0.85
2022-09-11T12:57:10.237Z,0.95
2022-09-11T13:00:24.283Z,0.50
2022-09-11T13:03:30.671Z,0.60
2022-09-11T13:06:52.933Z,0.60
2022-09-11T13:09:57.605Z,0.70
2022-09-11T13:13:02.928Z,0.57
2022-09-11T13:16:20.269Z,0.75
2022-09-11T13:19:23.495Z,0.63
2022-09-11T13:22:31.403Z,0.80
2022-09-11T13:25:45.569Z,0.60
2022-09-11T13:28:52.691Z,0.60
2022-09-11T13:31:58.064Z,0.68
2022-09-11T13:35:05.863Z,0.65
2022-09-11T13:38:19.479Z,0.70
2022-09-11T13:41:26.271Z,0.70
2022-09-11T13:44:40.076Z,0.70
2022-09-11T13:47:42.523Z,0.50
2022-09-11T13:50:45.430Z,0.50
2022-09-11T13:54:12.540Z,0.70
2022-09-11T13:57:18.550Z,0.80
2022-09-11T14:00:40.264Z,0.67
2022-09-11T14:03:49.844Z,1.02
2022-09-11T14:06:51.934Z,0.60
2022-09-11T14:10:05.085Z,0.85
2022-09-11T14:13:36.708Z,0.70
2022-09-11T14:16:46.803Z,0.90
2022-09-11T14:19:52.073Z,0.70
2022-09-11T14:22:59.669Z,0.68
2022-09-11T14:26:16.217Z,0.70
2022-09-11T14:29:31.071Z,1.10
2022-09-11T14:32:39.470Z,1.15
2022-09-11T14:35:43.065Z,1.30
2022-09-11T14:38:49.177Z,1.00
2022-09-11T14:41:59.864Z,1.10
2022-09-11T14:45:25.225Z,1.10
2022-09-11T14:48:28.830Z,0.93
2022-09-11T14:51:35.050Z,1.20
2022-09-11T14:54:37.895Z,0.80
2022-09-11T14:57:40.987Z,0.55
2022-09-11T15:00:44.431Z,0.85
2022-09-11T15:03:48.632Z,0.77
2022-09-11T15:06:53.530Z,0.80
2022-09-11T15:09:59.280Z,0.80
2022-09-11T15:13:04.596Z,0.67
2022-09-11T15:16:09.882Z,0.60
2022-09-11T15:19:15.397Z,0.88
2022-09-11T15:22:18.181Z,0.77
2022-09-11T15:25:20.238Z,0.60
2022-09-11T15:28:24.974Z,0.52
2022-09-11T15:31:30.443Z,0.85
2022-09-11T15:34:33.509Z,0.90
2022-09-11T15:37:35.808Z,0.80
2022-09-11T15:40:39.575Z,1.15
2022-09-11T15:43:45.975Z,0.80
2022-09-11T15:46:51.237Z,0.82
2022-09-11T15:49:57.241Z,1.17
2022-09-11T15:52:59.472Z,0.77
2022-09-11T15:56:13.571Z,0.73
2022-09-11T15:59:16.811Z,0.50
2022-09-11T16:02:21.021Z,0.70
2022-09-11T16:05:24.702Z,0.70
2022-09-11T16:08:28.382Z,0.70
2022-09-11T16:11:35.457Z,0.70
2022-09-11T16:14:38.983Z,0.70
2022-09-11T16:17:42.345Z,0.85
2022-09-11T16:20:44.704Z,0.80
2022-09-11T16:23:53.580Z,0.73
2022-09-11T16:26:59.816Z,0.63
2022-09-11T16:30:42.071Z,0.70
2022-09-11T16:33:30.173Z,0.70
2022-09-11T16:36:41.542Z,0.73
2022-09-11T16:39:50.393Z,0.70
2022-09-11T16:42:54.591Z,0.80
2022-09-11T16:45:59.360Z,0.98
2022-09-11T16:49:04.365Z,0.80
2022-09-11T16:52:08.031Z,0.90
2022-09-11T16:55:11.833Z,1.23
2022-09-11T16:58:16.733Z,1.13
2022-09-11T17:01:25.264Z,1.08
2022-09-11T17:04:28.038Z,1.50
2022-09-11T17:07:36.298Z,0.90
2022-09-11T17:10:45.208Z,1.20
2022-09-11T17:13:48.541Z,1.25
2022-09-11T17:16:52.337Z,1.20
2022-09-11T17:19:55.244Z,0.95
2022-09-11T17:23:02.720Z,0.80
2022-09-11T17:26:10.117Z,0.90
2022-09-11T17:29:15.953Z,1.23
2022-09-11T17:32:28.488Z,1.10
2022-09-11T17:35:33.503Z,1.00
2022-09-11T17:38:37.523Z,0.70
2022-09-11T17:41:43.032Z,1.02
2022-09-11T17:44:48.405Z,0.68
2022-09-11T17:47:53.068Z,1.02
2022-09-11T17:51:25.960Z,0.95
2022-09-11T17:54:29.017Z,1.13
2022-09-11T17:57:32.523Z,1.00
2022-09-11T18:00:35.517Z,1.20
2022-09-11T18:03:39.741Z,1.27
2022-09-11T18:07:04.202Z,1.30
2022-09-11T18:10:06.828Z,1.08
2022-09-11T18:13:09.825Z,1.30
2022-09-11T18:16:11.937Z,1.50
2022-09-11T18:19:16.783Z,1.48
2022-09-11T18:22:19.903Z,1.58
2022-09-11T18:25:25.805Z,1.30
2022-09-11T18:28:29.794Z,1.50
2022-09-11T18:31:37.275Z,1.92
2022-09-11T18:34:39.740Z,1.60
2022-09-11T18:37:43.217Z,1.52
2022-09-11T18:40:45.345Z,1.50
2022-09-11T18:43:48.798Z,1.40
2022-09-11T18:46:54.796Z,1.50
2022-09-11T18:50:01.146Z,1.38
2022-09-11T18:53:03.313Z,1.20
2022-09-11T18:56:09.666Z,1.50
2022-09-11T18:59:12.723Z,1.65
2022-09-11T19:02:15.393Z,1.60
2022-09-11T19:05:19.490Z,1.27
2022-09-11T19:08:26.439Z,1.42
2022-09-11T19:11:32.487Z,1.00
2022-09-11T19:14:36.253Z,1.20
2022-09-11T19:17:38.927Z,1.13
2022-09-11T19:20:41.538Z,1.40
2022-09-11T19:23:45.429Z,1.13
2022-09-11T19:26:47.966Z,1.42
2022-09-11T19:29:50.307Z,1.60
2022-09-11T19:32:52.979Z,1.20
2022-09-11T19:35:57.728Z,1.25
2022-09-11T19:39:00.879Z,1.38
2022-09-11T19:42:04.448Z,1.85
2022-09-11T19:45:08.571Z,1.60
2022-09-11T19:48:13.129Z,1.60
2022-09-11T19:51:24.012Z,1.50
2022-09-11T19:54:26.215Z,1.33
2022-09-11T19:57:28.450Z,1.45
2022-09-11T20:00:31.397Z,1.55
2022-09-11T20:03:33.378Z,1.58
2022-09-11T20:06:36.445Z,1.63
2022-09-11T20:09:39.156Z,1.55
2022-09-11T20:12:41.402Z,1.80
2022-09-11T20:15:43.841Z,1.60
2022-09-11T20:18:46.904Z,1.95
2022-09-11T20:21:48.896Z,1.52
2022-09-11T20:24:51.642Z,1.65
2022-09-11T20:27:54.272Z,1.70
2022-09-11T20:31:00.509Z,1.70
2022-09-11T20:34:03.745Z,1.40
2022-09-11T20:37:10.006Z,2.15
2022-09-11T20:40:12.529Z,1.73
2022-09-11T20:43:14.962Z,1.60
2022-09-11T20:46:18.512Z,2.10
2022-09-11T20:49:20.769Z,2.17
2022-09-11T20:52:22.784Z,2.00
2022-09-11T20:55:24.834Z,1.83
2022-09-11T20:58:26.946Z,2.28
2022-09-11T21:01:32.623Z,2.22
2022-09-11T21:04:34.772Z,2.45
2022-09-11T21:07:36.826Z,2.28
2022-09-11T21:10:38.771Z,2.42
2022-09-11T21:13:42.526Z,2.45
2022-09-11T21:16:44.623Z,2.28
2022-09-11T21:19:46.555Z,2.60
2022-09-11T21:22:48.723Z,2.72
2022-09-11T21:25:52.744Z,2.83
2022-09-11T21:28:59.227Z,2.60
2022-09-11T21:32:01.897Z,3.13
2022-09-11T21:35:04.340Z,2.60
2022-09-11T21:38:06.292Z,3.10
2022-09-11T21:41:10.413Z,3.20
2022-09-11T21:44:12.249Z,3.22
2022-09-11T21:47:14.133Z,2.78
2022-09-11T21:50:21.831Z,3.25
2022-09-11T21:53:24.906Z,2.88
2022-09-11T21:56:30.270Z,2.70
2022-09-11T21:59:32.849Z,2.88
2022-09-11T22:02:35.011Z,2.75
2022-09-11T22:05:45.980Z,2.90
2022-09-11T22:08:47.773Z,2.35
2022-09-11T22:11:50.174Z,3.08
2022-09-11T22:14:53.160Z,2.35
2022-09-11T22:17:55.467Z,2.70
2022-09-11T22:21:00.751Z,3.00
2022-09-11T22:24:04.561Z,2.90
2022-09-11T22:27:07.217Z,2.72
2022-09-11T22:30:10.549Z,3.05
2022-09-11T22:33:12.508Z,2.63
2022-09-11T22:36:18.133Z,3.40
2022-09-11T22:39:20.189Z,2.45
2022-09-11T22:42:22.025Z,2.58
2022-09-11T22:45:23.974Z,3.03
2022-09-11T22:48:25.969Z,3.15
2022-09-11T22:51:28.267Z,3.35
2022-09-11T22:54:30.384Z,2.70
2022-09-11T22:57:35.105Z,2.50
2022-09-11T23:00:38.024Z,3.15
2022-09-11T23:03:40.080Z,3.35
2022-09-11T23:07:01.587Z,3.15
2022-09-11T23:10:04.053Z,2.83
2022-09-11T23:13:06.152Z,3.22
2022-09-11T23:16:17.861Z,3.15
2022-09-11T23:19:20.270Z,2.90
2022-09-11T23:22:23.047Z,3.15
2022-09-11T23:25:25.659Z,2.97
2022-09-11T23:28:27.410Z,3.35
2022-09-11T23:31:31.566Z,3.00
2022-09-11T23:34:33.707Z,3.25
2022-09-11T23:37:35.756Z,3.30
2022-09-11T23:40:38.082Z,3.47
2022-09-11T23:43:40.300Z,2.97
2022-09-11T23:46:43.037Z,3.40
2022-09-11T23:49:44.979Z,2.92
2022-09-11T23:52:46.882Z,3.13
2022-09-11T23:55:52.525Z,3.83
2022-09-11T23:58:54.475Z,3.25
